createdAt,value
2022-10-06T05:57:55.272Z,2.70
2022-10-06T06:00:22.223Z,2.50
2022-10-06T06:02:49.263Z,2.60
2022-10-06T06:05:16.280Z,2.53
2022-10-06T06:07:43.376Z,2.40
2022-10-06T06:10:10.524Z,2.50
2022-10-06T06:12:37.469Z,2.67
2022-10-06T06:15:24.590Z,2.50
2022-10-06T06:17:51.650Z,2.53
2022-10-06T06:20:19.703Z,2.40
2022-10-06T06:22:51.914Z,2.60
2022-10-06T06:25:18.890Z,2.40
2022-10-06T06:27:46.053Z,3.05
2022-10-06T06:30:13.030Z,3.43
2022-10-06T06:32:40.079Z,3.00
2022-10-06T06:35:07.303Z,3.15
2022-10-06T06:37:34.305Z,2.70
2022-10-06T06:40:01.326Z,3.25
2022-10-06T06:42:28.312Z,3.72
2022-10-06T06:45:29.409Z,3.55
2022-10-06T06:47:56.940Z,5.45
2022-10-06T06:50:23.971Z,2.50
2022-10-06T06:52:50.939Z,3.33
2022-10-06T06:55:18.095Z,3.38
2022-10-06T06:57:46.373Z,3.22
2022-10-06T07:00:13.952Z,4.38
2022-10-06T07:02:40.997Z,3.30
2022-10-06T07:05:07.954Z,5.03
2022-10-06T07:07:35.932Z,4.10
2022-10-06T07:10:02.934Z,3.42
2022-10-06T07:12:30.011Z,3.42
2022-10-06T07:15:16.919Z,3.58
2022-10-06T07:18:03.885Z,3.83
2022-10-06T07:20:50.829Z,3.78
2022-10-06T07:23:39.104Z,3.95
2022-10-06T07:26:07.033Z,5.18
2022-10-06T07:28:34.117Z,4.10
2022-10-06T07:31:01.252Z,3.67
2022-10-06T07:33:29.158Z,4.00
2022-10-06T07:35:56.315Z,5.70
2022-10-06T07:38:25.832Z,3.22
2022-10-06T07:41:17.932Z,4.95
2022-10-06T07:43:41.882Z,4.40
2022-10-06T07:46:11.057Z,2.70
2022-10-06T07:48:39.182Z,4.55
2022-10-06T07:51:12.804Z,5.20
2022-10-06T07:53:39.799Z,4.68
2022-10-06T07:56:28.589Z,4.97
2022-10-06T07:58:58.897Z,3.85
2022-10-06T08:01:27.678Z,3.42
2022-10-06T08:03:54.698Z,4.38
2022-10-06T08:06:23.506Z,4.88
2022-10-06T08:08:53.489Z,6.03
2022-10-06T08:11:21.505Z,7.70
2022-10-06T08:13:48.560Z,5.05
2022-10-06T08:16:17.629Z,5.90
2022-10-06T08:18:49.193Z,7.80
2022-10-06T08:23:54.467Z,6.45
2022-10-06T08:26:22.149Z,10.32
2022-10-06T08:28:50.522Z,12.10
2022-10-06T08:31:18.568Z,6.90
2022-10-06T08:33:47.350Z,8.05
2022-10-06T08:36:20.980Z,8.02
2022-10-06T08:38:49.837Z,11.55
2022-10-06T08:41:21.617Z,6.68
2022-10-06T08:43:53.571Z,8.88
2022-10-06T08:50:28.455Z,7.50
2022-10-06T08:53:06.668Z,8.05
2022-10-06T08:55:52.180Z,5.13
2022-10-06T08:58:29.113Z,7.40
2022-10-06T09:01:02.903Z,7.00
2022-10-06T09:03:30.520Z,6.65
2022-10-06T09:06:02.620Z,8.30
2022-10-06T09:08:38.520Z,7.22
2022-10-06T09:13:45.689Z,8.07
2022-10-06T09:16:16.220Z,7.30
2022-10-06T09:21:40.602Z,6.03
2022-10-06T09:24:12.370Z,6.17
2022-10-06T09:26:43.115Z,4.03
2022-10-06T09:29:10.536Z,7.50
2022-10-06T09:31:38.920Z,4.88
2022-10-06T09:34:13.636Z,4.00
2022-10-06T09:37:01.583Z,4.53
2022-10-06T09:39:33.026Z,4.43
2022-10-06T09:42:02.880Z,3.70
2022-10-06T09:44:31.536Z,7.23
2022-10-06T09:46:58.530Z,6.53
2022-10-06T09:49:26.997Z,5.30
2022-10-06T09:54:41.644Z,6.40
2022-10-06T09:57:10.342Z,7.43
2022-10-06T09:59:41.564Z,9.77
2022-10-06T10:02:27.026Z,8.77
2022-10-06T10:04:56.171Z,6.10
2022-10-06T10:07:31.116Z,6.95
2022-10-06T10:10:18.065Z,8.00
2022-10-06T10:12:51.325Z,7.15
2022-10-06T10:17:57.790Z,12.02
2022-10-06T10:23:07.909Z,7.70
2022-10-06T10:25:55.300Z,5.45
2022-10-06T10:28:44.241Z,8.82
2022-10-06T10:31:18.291Z,7.38
2022-10-06T10:34:05.320Z,6.95
2022-10-06T10:36:43.446Z,4.05
2022-10-06T10:39:14.772Z,3.67
2022-10-06T10:41:46.285Z,5.43
2022-10-06T10:44:21.478Z,5.77
2022-10-06T10:46:50.185Z,6.63
2022-10-06T10:49:24.404Z,2.63
2022-10-06T10:51:56.219Z,2.73
2022-10-06T10:54:29.777Z,5.25
2022-10-06T10:57:28.245Z,4.75
2022-10-06T11:02:34.418Z,8.65
2022-10-06T11:05:06.030Z,7.50
2022-10-06T11:10:18.169Z,7.82
2022-10-06T11:15:43.194Z,2.90
2022-10-06T11:18:26.028Z,2.90
2022-10-06T11:20:56.797Z,4.70
2022-10-06T11:26:05.243Z,4.95
2022-10-06T11:28:37.357Z,2.30
2022-10-06T11:31:12.279Z,2.97
2022-10-06T11:33:56.176Z,4.15
2022-10-06T11:36:44.459Z,3.92
2022-10-06T11:39:17.492Z,4.43
2022-10-06T11:41:48.622Z,3.33
2022-10-06T11:46:55.128Z,3.47
2022-10-06T12:02:41.672Z,3.30
2022-10-06T12:18:34.268Z,3.97
2022-10-06T12:21:06.532Z,4.15
2022-10-06T12:23:39.727Z,2.17
2022-10-06T12:26:17.144Z,3.17
2022-10-06T12:28:49.706Z,3.20
2022-10-06T12:31:37.227Z,3.05
2022-10-06T12:34:04.560Z,4.78
2022-10-06T12:36:32.396Z,3.95
2022-10-06T12:42:00.329Z,4.32
2022-10-06T12:44:34.027Z,3.97
2022-10-06T12:47:03.903Z,19.63
2022-10-06T12:52:10.220Z,29.60
2022-10-06T12:54:41.294Z,25.02
2022-10-06T12:57:28.341Z,30.00
2022-10-06T12:59:55.688Z,29.55
